createdAt,value
2022-12-24T00:00:59.855Z,12.09
2022-12-24T00:03:27.208Z,12.07
2022-12-24T00:05:53.950Z,12.08
2022-12-24T00:08:20.705Z,12.08
2022-12-24T00:10:53.867Z,12.13
2022-12-24T00:13:21.034Z,12.16
2022-12-24T00:15:47.682Z,12.16
2022-12-24T00:18:14.410Z,12.14
2022-12-24T00:20:41.210Z,12.11
2022-12-24T00:23:08.095Z,12.11
2022-12-24T00:25:34.651Z,12.14
2022-12-24T00:28:01.244Z,12.17
2022-12-24T00:30:27.831Z,12.20
2022-12-24T00:32:54.664Z,12.17
2022-12-24T00:35:21.965Z,12.16
2022-12-24T00:37:48.961Z,12.13
2022-12-24T00:40:16.764Z,12.13
2022-12-24T00:42:43.459Z,12.14
2022-12-24T00:45:11.097Z,12.16
2022-12-24T00:47:37.726Z,12.17
2022-12-24T00:50:05.843Z,12.16
2022-12-24T00:52:32.418Z,12.15
2022-12-24T00:54:59.072Z,12.16
2022-12-24T00:57:25.727Z,12.12
2022-12-24T00:59:52.321Z,12.11
2022-12-24T01:02:19.188Z,12.07
2022-12-24T01:05:04.812Z,12.07
2022-12-24T01:07:31.434Z,12.02
2022-12-24T01:09:58.020Z,12.00
2022-12-24T01:12:25.536Z,12.02
2022-12-24T01:14:52.146Z,12.02
2022-12-24T01:17:18.775Z,12.03
2022-12-24T01:19:45.498Z,12.03
2022-12-24T01:22:12.113Z,12.06
2022-12-24T01:24:41.623Z,12.07
2022-12-24T01:27:08.803Z,12.08
2022-12-24T01:29:35.572Z,12.10
2022-12-24T01:32:02.164Z,12.12
2022-12-24T01:34:28.794Z,12.14
2022-12-24T01:36:55.333Z,12.15
2022-12-24T01:39:21.995Z,12.16
2022-12-24T01:42:07.084Z,12.20
2022-12-24T01:44:37.384Z,12.23
2022-12-24T01:47:11.425Z,12.22
2022-12-24T01:49:41.817Z,12.24
2022-12-24T01:52:16.921Z,12.24
2022-12-24T01:54:57.715Z,12.25
2022-12-24T01:57:49.151Z,12.23
2022-12-24T02:00:16.817Z,12.28
2022-12-24T02:02:50.527Z,12.28
2022-12-24T02:05:36.268Z,12.29
2022-12-24T02:08:04.784Z,12.30
2022-12-24T02:10:31.415Z,12.30
2022-12-24T02:12:59.945Z,12.31
2022-12-24T02:15:34.195Z,12.29
2022-12-24T02:18:24.062Z,12.25
2022-12-24T02:21:02.997Z,12.30
2022-12-24T02:23:29.528Z,12.31
2022-12-24T02:26:26.098Z,12.28
2022-12-24T02:29:45.442Z,12.28
2022-12-24T02:32:18.175Z,12.31
2022-12-24T02:34:56.635Z,12.31
2022-12-24T02:37:33.432Z,12.31
2022-12-24T02:40:22.720Z,12.28
2022-12-24T02:42:58.598Z,12.29
2022-12-24T02:45:34.462Z,12.28
2022-12-24T02:48:01.319Z,12.28
2022-12-24T02:50:28.694Z,12.29
2022-12-24T02:52:55.311Z,12.25
2022-12-24T02:55:36.574Z,12.25
2022-12-24T02:58:03.075Z,12.24
2022-12-24T03:00:55.885Z,12.22
2022-12-24T03:03:36.622Z,12.23
2022-12-24T03:06:19.997Z,12.25
2022-12-24T03:08:54.116Z,12.19
2022-12-24T03:11:21.070Z,12.22
2022-12-24T03:13:49.645Z,12.22
2022-12-24T03:16:25.065Z,12.21
2022-12-24T03:18:53.692Z,12.24
2022-12-24T03:21:28.526Z,12.23
2022-12-24T03:23:55.731Z,12.25
2022-12-24T03:26:23.348Z,12.23
2022-12-24T03:28:50.388Z,12.25
2022-12-24T03:31:18.828Z,12.24
2022-12-24T03:33:46.319Z,12.23
2022-12-24T03:36:13.492Z,12.24
2022-12-24T03:38:40.101Z,12.22
2022-12-24T03:41:06.866Z,12.24
2022-12-24T03:43:33.605Z,12.23
2022-12-24T03:46:06.373Z,12.22
2022-12-24T03:48:35.561Z,12.24
2022-12-24T03:51:03.616Z,12.24
2022-12-24T03:53:30.217Z,12.24
2022-12-24T03:55:56.885Z,12.22
2022-12-24T03:58:23.422Z,12.22
2022-12-24T04:00:50.026Z,12.23
2022-12-24T04:03:16.729Z,12.23
2022-12-24T04:05:43.319Z,12.19
2022-12-24T04:08:09.872Z,12.20
2022-12-24T04:10:36.548Z,12.21
2022-12-24T04:13:03.152Z,12.20
2022-12-24T04:15:29.753Z,12.22
2022-12-24T04:17:56.322Z,12.22
2022-12-24T04:20:22.874Z,12.22
2022-12-24T04:22:49.400Z,12.22
2022-12-24T04:25:16.122Z,12.22
2022-12-24T04:27:42.687Z,12.20
2022-12-24T04:30:09.714Z,12.20
2022-12-24T04:32:36.308Z,12.15
2022-12-24T04:35:03.059Z,12.10
2022-12-24T04:37:29.770Z,12.12
2022-12-24T04:39:56.425Z,12.11
2022-12-24T04:42:22.972Z,12.12
2022-12-24T04:44:49.544Z,12.10
2022-12-24T04:47:16.484Z,12.10
2022-12-24T04:49:43.510Z,12.07
2022-12-24T04:52:10.035Z,12.06
2022-12-24T04:54:36.661Z,12.06
2022-12-24T04:57:03.199Z,12.07
2022-12-24T04:59:29.847Z,12.06
2022-12-24T05:01:56.574Z,12.06
2022-12-24T05:04:23.260Z,12.09
2022-12-24T05:06:49.841Z,12.11
2022-12-24T05:09:16.475Z,12.09
2022-12-24T05:11:43.035Z,12.11
2022-12-24T05:14:09.600Z,12.12
2022-12-24T05:16:36.327Z,12.13
2022-12-24T05:19:02.995Z,12.15
2022-12-24T05:21:29.569Z,12.17
2022-12-24T05:24:15.186Z,12.16
2022-12-24T05:26:48.251Z,12.15
2022-12-24T05:29:14.846Z,12.17
2022-12-24T05:31:43.484Z,12.16
2022-12-24T05:34:11.022Z,12.15
2022-12-24T05:36:38.205Z,12.16
2022-12-24T05:39:09.793Z,12.15
2022-12-24T05:41:40.216Z,12.13
2022-12-24T05:44:06.992Z,12.13
2022-12-24T05:46:33.603Z,12.12
2022-12-24T05:49:00.183Z,12.11
2022-12-24T05:51:26.770Z,12.07
2022-12-24T05:53:53.376Z,12.07
2022-12-24T05:56:23.955Z,12.08
2022-12-24T05:58:52.267Z,12.22
2022-12-24T06:01:20.100Z,12.34
2022-12-24T06:03:47.272Z,12.41
2022-12-24T06:06:19.380Z,12.44
2022-12-24T06:08:46.280Z,12.65
2022-12-24T06:11:14.691Z,12.83
2022-12-24T06:13:42.517Z,13.08
2022-12-24T06:16:14.402Z,13.09
2022-12-24T06:18:42.152Z,13.10
2022-12-24T06:21:09.811Z,13.16
2022-12-24T06:23:39.153Z,13.13
2022-12-24T06:26:07.365Z,13.18
2022-12-24T06:28:37.013Z,13.01
2022-12-24T06:31:06.032Z,12.84
2022-12-24T06:33:34.203Z,12.87
2022-12-24T06:36:01.613Z,12.93
2022-12-24T06:38:30.291Z,12.94
2022-12-24T06:40:57.144Z,12.77
2022-12-24T06:43:23.778Z,12.76
2022-12-24T06:45:50.410Z,12.58
2022-12-24T06:48:17.053Z,12.43
2022-12-24T06:50:44.251Z,12.32
2022-12-24T06:53:11.151Z,12.16
2022-12-24T06:55:38.364Z,12.03
2022-12-24T06:58:05.201Z,11.92
2022-12-24T07:00:31.871Z,11.85
2022-12-24T07:02:58.737Z,11.78
2022-12-24T07:05:25.503Z,11.74
2022-12-24T07:07:52.104Z,11.71
2022-12-24T07:10:19.891Z,11.64
2022-12-24T07:12:46.803Z,11.61
2022-12-24T07:15:14.281Z,11.57
2022-12-24T07:17:41.606Z,11.55
2022-12-24T07:20:12.374Z,11.52
2022-12-24T07:22:38.964Z,11.50
2022-12-24T07:25:06.041Z,11.50
2022-12-24T07:27:32.632Z,11.50
2022-12-24T07:29:59.223Z,11.52
2022-12-24T07:32:25.840Z,11.49
2022-12-24T07:34:52.417Z,11.47
2022-12-24T07:37:18.986Z,11.49
2022-12-24T07:39:45.696Z,11.50
2022-12-24T07:42:12.248Z,11.49
2022-12-24T07:44:38.934Z,11.48
2022-12-24T07:47:05.593Z,11.48
2022-12-24T07:49:32.288Z,11.48
2022-12-24T07:51:59.000Z,11.46
2022-12-24T07:54:25.750Z,11.50
2022-12-24T07:56:52.297Z,11.47
2022-12-24T07:59:19.013Z,11.52
2022-12-24T08:01:45.746Z,11.55
2022-12-24T08:04:12.669Z,11.60
2022-12-24T08:06:39.846Z,11.63
2022-12-24T08:09:06.473Z,11.65
2022-12-24T08:11:33.088Z,11.68
2022-12-24T08:13:59.755Z,11.72
2022-12-24T08:16:26.483Z,11.79
2022-12-24T08:18:53.077Z,11.83
2022-12-24T08:21:19.673Z,11.89
2022-12-24T08:23:47.161Z,11.92
2022-12-24T08:26:13.925Z,11.98
2022-12-24T08:28:40.663Z,12.01
2022-12-24T08:31:07.634Z,12.06
2022-12-24T08:33:34.483Z,12.10
2022-12-24T08:36:02.386Z,12.15
2022-12-24T08:38:29.500Z,12.21
2022-12-24T08:40:56.538Z,12.25
2022-12-24T08:43:25.519Z,12.28
2022-12-24T08:45:52.859Z,12.27
2022-12-24T08:48:19.936Z,12.30
2022-12-24T08:50:47.093Z,12.35
2022-12-24T08:53:14.054Z,12.38
2022-12-24T08:55:40.726Z,12.38
2022-12-24T08:58:07.487Z,12.42
2022-12-24T09:00:34.079Z,12.47
2022-12-24T09:03:00.853Z,12.52
2022-12-24T09:05:27.671Z,12.50
2022-12-24T09:07:55.469Z,12.47
2022-12-24T09:10:22.689Z,12.45
2022-12-24T09:12:49.307Z,12.49
2022-12-24T09:15:15.907Z,12.50
2022-12-24T09:17:42.871Z,12.56
2022-12-24T09:20:10.288Z,12.62
2022-12-24T09:22:38.644Z,12.69
2022-12-24T09:25:10.554Z,12.76
2022-12-24T09:27:37.965Z,12.80
2022-12-24T09:30:06.262Z,12.77
2022-12-24T09:32:33.988Z,12.74
2022-12-24T09:35:01.039Z,12.71
2022-12-24T09:37:27.633Z,12.70
2022-12-24T09:39:54.815Z,12.73
2022-12-24T09:42:48.679Z,12.74
2022-12-24T09:45:56.963Z,12.71
2022-12-24T09:48:29.348Z,12.71
2022-12-24T09:51:05.009Z,12.67
2022-12-24T09:53:47.949Z,12.67
2022-12-24T09:56:21.071Z,12.68
2022-12-24T09:58:58.443Z,12.68
2022-12-24T10:01:25.400Z,12.71
2022-12-24T10:03:52.269Z,12.72
2022-12-24T10:06:29.649Z,12.76
2022-12-24T10:09:24.649Z,12.76
2022-12-24T10:12:36.223Z,12.74
2022-12-24T10:15:30.754Z,12.80
2022-12-24T10:18:06.503Z,12.86
2022-12-24T10:20:56.374Z,12.86
2022-12-24T10:23:34.757Z,12.83
2022-12-24T10:26:27.002Z,12.79
2022-12-24T10:28:58.443Z,12.80
2022-12-24T10:31:42.216Z,12.75
2022-12-24T10:34:24.620Z,12.75
2022-12-24T10:36:51.992Z,12.77
2022-12-24T10:39:24.420Z,12.73
2022-12-24T10:41:57.994Z,12.73
2022-12-24T10:44:27.894Z,12.79
2022-12-24T10:46:54.654Z,12.78
2022-12-24T10:49:36.874Z,12.79
2022-12-24T10:52:05.460Z,12.74
2022-12-24T10:54:39.374Z,12.76
2022-12-24T10:57:22.646Z,12.76
2022-12-24T10:59:55.062Z,12.82
2022-12-24T11:02:32.957Z,12.93
2022-12-24T11:05:02.061Z,12.96
2022-12-24T11:07:31.060Z,12.98
2022-12-24T11:10:03.532Z,12.97
2022-12-24T11:12:33.576Z,12.99
2022-12-24T11:15:14.880Z,12.91
2022-12-24T11:17:41.496Z,12.96
2022-12-24T11:20:18.365Z,12.98
2022-12-24T11:22:50.323Z,12.96
2022-12-24T11:25:29.029Z,12.91
2022-12-24T11:27:56.452Z,12.94
2022-12-24T11:30:32.106Z,12.89
2022-12-24T11:33:01.985Z,12.84
2022-12-24T11:35:32.840Z,12.79
2022-12-24T11:38:02.246Z,12.76
2022-12-24T11:40:36.668Z,12.74
2022-12-24T11:43:10.982Z,12.77
2022-12-24T11:45:51.149Z,12.74
2022-12-24T11:48:28.268Z,12.70
2022-12-24T11:51:06.791Z,12.72
2022-12-24T11:54:14.962Z,12.71
2022-12-24T11:56:47.208Z,12.77
2022-12-24T11:59:29.336Z,12.75
2022-12-24T12:02:05.067Z,12.76
2022-12-24T12:04:35.948Z,12.76
2022-12-24T12:07:15.120Z,12.72
2022-12-24T12:09:47.300Z,12.69
2022-12-24T12:12:21.583Z,12.64
2022-12-24T12:14:55.982Z,12.66
2022-12-24T12:17:32.505Z,12.69
2022-12-24T12:20:25.723Z,12.67
2022-12-24T12:23:04.454Z,12.66
2022-12-24T12:26:03.062Z,12.72
2022-12-24T12:28:41.469Z,12.72
2022-12-24T12:31:30.247Z,12.68
2022-12-24T12:34:12.017Z,12.59
2022-12-24T12:37:12.766Z,12.56
2022-12-24T12:39:41.606Z,12.54
2022-12-24T12:42:32.625Z,12.53
2022-12-24T12:45:02.244Z,12.56
2022-12-24T12:47:44.008Z,12.60
2022-12-24T12:50:19.608Z,12.61
2022-12-24T12:53:04.306Z,12.63
2022-12-24T12:55:43.022Z,12.66
2022-12-24T12:58:35.487Z,12.67
2022-12-24T13:01:09.081Z,12.68
2022-12-24T13:04:02.344Z,12.80
2022-12-24T13:06:57.901Z,12.78
2022-12-24T13:09:33.519Z,12.82
2022-12-24T13:12:09.260Z,12.85
2022-12-24T13:14:57.548Z,12.84
2022-12-24T13:17:36.280Z,12.81
2022-12-24T13:20:25.037Z,12.80
2022-12-24T13:22:57.783Z,12.84
2022-12-24T13:25:34.569Z,12.82
2022-12-24T13:28:22.627Z,12.84
2022-12-24T13:31:02.214Z,12.87
2022-12-24T13:33:38.140Z,12.87
2022-12-24T13:36:11.912Z,12.89
2022-12-24T13:38:42.630Z,12.93
2022-12-24T13:41:39.217Z,12.95
2022-12-24T13:44:06.907Z,13.02
2022-12-24T13:46:56.966Z,13.00
2022-12-24T13:49:31.929Z,12.97
2022-12-24T13:52:10.721Z,12.97
2022-12-24T13:54:55.597Z,12.99
2022-12-24T13:57:33.776Z,13.02
2022-12-24T14:00:20.603Z,13.03
2022-12-24T14:03:02.722Z,13.02
2022-12-24T14:05:47.160Z,12.96
2022-12-24T14:08:23.105Z,12.98
2022-12-24T14:11:14.647Z,12.95
2022-12-24T14:13:41.316Z,12.98
2022-12-24T14:16:12.973Z,12.94
2022-12-24T14:18:42.179Z,12.92
2022-12-24T14:21:18.042Z,12.83
2022-12-24T14:23:51.619Z,12.78
2022-12-24T14:26:21.416Z,12.78
2022-12-24T14:29:00.941Z,12.73
2022-12-24T14:31:27.860Z,12.71
2022-12-24T14:34:12.469Z,12.69
2022-12-24T14:36:41.739Z,12.67
2022-12-24T14:39:11.571Z,12.66
2022-12-24T14:42:10.669Z,12.59
2022-12-24T14:44:53.363Z,12.59
2022-12-24T14:47:40.504Z,12.56
2022-12-24T14:50:39.685Z,12.53
2022-12-24T14:53:28.484Z,12.51
2022-12-24T14:55:55.052Z,12.54
2022-12-24T14:58:32.649Z,12.51
2022-12-24T15:01:18.132Z,12.47
2022-12-24T15:03:44.904Z,12.37
2022-12-24T15:06:14.291Z,12.34
2022-12-24T15:08:46.313Z,12.33
2022-12-24T15:11:21.202Z,12.22
2022-12-24T15:13:53.377Z,12.24
2022-12-24T15:16:28.274Z,12.25
2022-12-24T15:18:58.567Z,12.24
2022-12-24T15:21:37.756Z,12.22
2022-12-24T15:24:04.918Z,12.26
2022-12-24T15:26:37.468Z,12.29
2022-12-24T15:29:21.000Z,12.26
2022-12-24T15:31:53.719Z,12.29
2022-12-24T15:34:37.261Z,12.30
2022-12-24T15:37:16.810Z,12.28
2022-12-24T15:39:44.324Z,12.30
2022-12-24T15:42:18.793Z,12.32
2022-12-24T15:45:01.968Z,12.28
2022-12-24T15:47:39.919Z,12.30
2022-12-24T15:50:18.231Z,12.31
2022-12-24T15:52:46.331Z,12.33
2022-12-24T15:55:31.328Z,12.30
2022-12-24T15:57:58.255Z,12.29
2022-12-24T16:00:31.030Z,12.27
2022-12-24T16:03:16.372Z,12.22
2022-12-24T16:05:43.025Z,12.25
2022-12-24T16:08:09.628Z,12.26
2022-12-24T16:10:39.810Z,12.29
2022-12-24T16:13:15.206Z,12.28
2022-12-24T16:16:03.143Z,12.29
2022-12-24T16:18:36.646Z,12.32
2022-12-24T16:21:04.621Z,12.37
2022-12-24T16:23:39.374Z,12.39
2022-12-24T16:26:06.230Z,12.40
2022-12-24T16:28:32.943Z,12.39
2022-12-24T16:30:59.850Z,12.35
2022-12-24T16:33:26.689Z,12.35
2022-12-24T16:35:53.381Z,12.33
2022-12-24T16:38:19.961Z,12.32
2022-12-24T16:40:47.130Z,12.30
2022-12-24T16:43:32.917Z,12.31
2022-12-24T16:46:05.473Z,12.32
2022-12-24T16:48:36.326Z,12.35
2022-12-24T16:51:02.983Z,12.35
2022-12-24T16:53:29.721Z,12.33
2022-12-24T16:55:56.432Z,12.33
2022-12-24T16:58:23.033Z,12.34
2022-12-24T17:00:49.733Z,12.36
2022-12-24T17:03:16.429Z,12.36
2022-12-24T17:05:44.409Z,12.33
2022-12-24T17:08:12.144Z,12.32
2022-12-24T17:10:39.387Z,12.32
2022-12-24T17:13:06.820Z,12.30
2022-12-24T17:15:33.850Z,12.30
2022-12-24T17:18:00.506Z,12.31
2022-12-24T17:20:27.106Z,12.31
2022-12-24T17:22:53.801Z,12.29
2022-12-24T17:25:20.464Z,12.31
2022-12-24T17:27:46.988Z,12.30
2022-12-24T17:30:13.794Z,12.27
2022-12-24T17:32:40.388Z,12.28
2022-12-24T17:35:08.015Z,12.30
2022-12-24T17:37:34.611Z,12.29
2022-12-24T17:40:01.458Z,12.30
2022-12-24T17:42:28.053Z,12.31
2022-12-24T17:44:54.583Z,12.33
2022-12-24T17:47:21.269Z,12.33
2022-12-24T17:49:47.842Z,12.33
2022-12-24T17:52:14.482Z,12.33
2022-12-24T17:54:41.087Z,12.34
2022-12-24T17:57:07.727Z,12.33
2022-12-24T17:59:34.344Z,12.32
2022-12-24T18:02:01.017Z,12.29
2022-12-24T18:04:27.656Z,12.28
2022-12-24T18:07:01.715Z,12.30
2022-12-24T18:09:29.566Z,12.29
2022-12-24T18:11:56.197Z,12.30
2022-12-24T18:14:22.829Z,12.29
2022-12-24T18:16:49.960Z,12.25
2022-12-24T18:19:16.681Z,12.22
2022-12-24T18:21:43.404Z,12.21
2022-12-24T18:24:12.412Z,12.15
2022-12-24T18:26:39.485Z,12.12
2022-12-24T18:29:08.793Z,12.10
2022-12-24T18:31:36.027Z,12.07
2022-12-24T18:34:04.704Z,12.06
2022-12-24T18:36:31.408Z,12.07
2022-12-24T18:38:58.126Z,12.07
2022-12-24T18:41:28.097Z,12.02
2022-12-24T18:43:55.827Z,12.03
2022-12-24T18:46:25.440Z,12.02
2022-12-24T18:48:53.305Z,11.99
2022-12-24T18:51:22.934Z,11.99
2022-12-24T18:53:50.738Z,12.01
2022-12-24T18:56:21.091Z,11.98
2022-12-24T18:58:47.777Z,11.97
2022-12-24T19:01:24.115Z,11.95
2022-12-24T19:03:51.102Z,11.95
2022-12-24T19:06:18.735Z,11.96
2022-12-24T19:08:57.196Z,11.97
2022-12-24T19:11:26.552Z,11.96
2022-12-24T19:13:53.517Z,11.92
2022-12-24T19:16:20.870Z,11.90
2022-12-24T19:18:47.862Z,11.93
2022-12-24T19:21:15.624Z,11.95
2022-12-24T19:23:42.552Z,11.97
2022-12-24T19:26:10.918Z,12.01
2022-12-24T19:28:37.839Z,12.04
2022-12-24T19:31:19.230Z,12.05
2022-12-24T19:33:48.418Z,12.07
2022-12-24T19:36:17.932Z,12.07
2022-12-24T19:38:44.675Z,12.04
2022-12-24T19:41:13.939Z,12.03
2022-12-24T19:43:42.869Z,12.04
2022-12-24T19:46:14.698Z,12.04
2022-12-24T19:48:41.751Z,11.93
2022-12-24T19:51:11.321Z,11.96
2022-12-24T19:53:39.381Z,11.93
2022-12-24T19:56:06.792Z,11.90
2022-12-24T19:58:34.743Z,11.90
2022-12-24T20:01:14.920Z,11.89
2022-12-24T20:03:43.000Z,11.90
2022-12-24T20:06:09.934Z,11.90
2022-12-24T20:08:37.896Z,11.90
2022-12-24T20:11:07.113Z,11.87
2022-12-24T20:13:35.098Z,11.86
2022-12-24T20:16:06.738Z,11.82
2022-12-24T20:18:33.890Z,11.81
2022-12-24T20:21:02.232Z,11.78
2022-12-24T20:23:29.437Z,11.74
2022-12-24T20:26:01.454Z,11.67
2022-12-24T20:28:28.893Z,11.53
2022-12-24T20:30:55.798Z,11.52
2022-12-24T20:33:22.882Z,11.48
2022-12-24T20:35:50.028Z,11.44
2022-12-24T20:38:16.660Z,11.40
2022-12-24T20:40:45.364Z,11.38
2022-12-24T20:43:12.979Z,11.35
2022-12-24T20:45:39.678Z,11.33
2022-12-24T20:48:07.278Z,11.30
2022-12-24T20:50:33.892Z,11.32
2022-12-24T20:53:00.516Z,11.33
2022-12-24T20:55:27.090Z,11.34
2022-12-24T20:57:53.631Z,11.36
2022-12-24T21:00:20.926Z,11.38
2022-12-24T21:02:47.637Z,11.40
2022-12-24T21:05:14.353Z,11.38
2022-12-24T21:07:42.964Z,11.35
2022-12-24T21:10:11.403Z,11.35
2022-12-24T21:12:50.388Z,11.33
2022-12-24T21:15:21.125Z,11.32
2022-12-24T21:17:48.238Z,11.32
2022-12-24T21:20:15.757Z,11.34
2022-12-24T21:22:42.339Z,11.32
2022-12-24T21:25:10.462Z,11.32
2022-12-24T21:27:37.088Z,11.31
2022-12-24T21:30:05.451Z,11.33
2022-12-24T21:32:32.143Z,11.35
2022-12-24T21:34:58.704Z,11.36
2022-12-24T21:37:25.341Z,11.35
2022-12-24T21:39:51.916Z,11.35
2022-12-24T21:42:18.542Z,11.36
2022-12-24T21:44:45.113Z,11.37
2022-12-24T21:47:11.709Z,11.36
2022-12-24T21:49:57.497Z,11.37
2022-12-24T21:52:24.127Z,11.35
2022-12-24T21:54:50.706Z,11.34
2022-12-24T21:57:35.924Z,11.34
2022-12-24T22:00:21.380Z,11.34
2022-12-24T22:02:57.994Z,11.30
2022-12-24T22:05:26.194Z,11.30
2022-12-24T22:08:13.013Z,11.31
2022-12-24T22:10:59.025Z,11.31
2022-12-24T22:13:26.087Z,11.31
2022-12-24T22:15:54.172Z,11.32
2022-12-24T22:18:23.671Z,11.34
2022-12-24T22:20:50.843Z,11.38
2022-12-24T22:23:18.352Z,11.40
2022-12-24T22:25:45.811Z,11.42
2022-12-24T22:28:12.478Z,11.42
2022-12-24T22:30:41.404Z,11.43
2022-12-24T22:33:08.787Z,11.44
2022-12-24T22:35:41.666Z,11.46
2022-12-24T22:38:09.945Z,11.48
2022-12-24T22:40:39.605Z,11.49
2022-12-24T22:43:06.223Z,11.48
2022-12-24T22:45:32.759Z,11.44
2022-12-24T22:47:59.331Z,11.44
2022-12-24T22:50:26.102Z,11.45
2022-12-24T22:52:53.828Z,11.43
2022-12-24T22:55:20.772Z,11.41
2022-12-24T22:57:47.386Z,11.42
2022-12-24T23:00:35.586Z,11.40
2022-12-24T23:03:02.237Z,11.38
2022-12-24T23:05:28.862Z,11.40
2022-12-24T23:07:55.448Z,11.39
2022-12-24T23:10:22.001Z,11.37
2022-12-24T23:13:11.216Z,11.35
2022-12-24T23:15:41.433Z,11.33
2022-12-24T23:18:08.526Z,11.33
2022-12-24T23:20:43.131Z,11.33
2022-12-24T23:23:09.761Z,11.34
2022-12-24T23:25:36.529Z,11.32
2022-12-24T23:28:03.272Z,11.30
2022-12-24T23:30:29.903Z,11.27
2022-12-24T23:32:56.521Z,11.28
2022-12-24T23:35:23.189Z,11.27
2022-12-24T23:37:49.825Z,11.25
2022-12-24T23:40:16.497Z,11.26
2022-12-24T23:42:43.222Z,11.25
2022-12-24T23:45:10.230Z,11.25
2022-12-24T23:47:36.855Z,11.24
2022-12-24T23:50:04.488Z,11.24
2022-12-24T23:52:31.891Z,11.24
2022-12-24T23:54:58.413Z,11.26
2022-12-24T23:57:25.008Z,11.28
2022-12-24T23:59:51.626Z,11.28
